Time;durP1;ratioP1;P1;durP2;ratioP2;P2;SDS_P1;SDS_P2;PMS_P1;PMS_P2;Temp;Humidity;BMP_temperature;BMP_pressure;BME280_temperature;BME280_humidity;BME280_pressure;Samples;Min_cycle;Max_cycle;Signal;HPM_P1;HPM_P2
2022/09/12 00:01:53;;;;;;;;;;;;;;;;;;5174455;27;19927;-49
2022/09/12 00:04:20;;;;;;;;;;;;;;;;;;5174435;27;19927;-48
2022/09/12 00:06:50;;;;;;;;;;;;;;;;;;5174422;27;19927;-50
2022/09/12 00:09:17;;;;;;;;;;;;;;;;;;5174196;27;20334;-50
2022/09/12 00:11:45;;;;;;;;;;;;;;;;;;5174324;27;19934;-48
2022/09/12 00:14:13;;;;;;;;;;;;;;;;;;5174277;27;19922;-47
2022/09/12 00:16:40;;;;;;;;;;;;;;;;;;5174315;27;20382;-49
2022/09/12 00:19:08;;;;;;;;;;;;;;;;;;5174031;27;20042;-51
2022/09/12 00:21:36;;;;;;;;;;;;;;;;;;5174101;27;19923;-48
2022/09/12 00:24:04;;;;;;;;;;;;;;;;;;5174209;27;19926;-48
2022/09/12 00:26:31;;;;;;;;;;;;;;;;;;5174203;27;19930;-53
2022/09/12 00:28:59;;;;;;;;;;;;;;;;;;5174020;27;19922;-49
2022/09/12 00:31:26;;;;;;;;;;;;;;;;;;5173841;27;19923;-50
2022/09/12 00:33:57;;;;;;;;;;;;;;;;;;5173952;27;19926;-48
2022/09/12 00:36:25;;;;;;;;;;;;;;;;;;5173910;27;19923;-50
2022/09/12 00:38:53;;;;;;;;;;;;;;;;;;5173865;27;19936;-47
2022/09/12 00:41:28;;;;;;;;;;;;;;;;;;5173453;27;19922;-50
2022/09/12 00:43:59;;;;;;;;;;;;;;;;;;5173702;27;20045;-50
2022/09/12 00:46:29;;;;;;;;;;;;;;;;;;5173519;27;19958;-49
2022/09/12 00:49:15;;;;;;;;;;;;;;;;;;5173676;27;19969;-49
2022/09/12 00:51:51;;;;;;;;;;;;;;;;;;5173518;27;19922;-48
2022/09/12 00:54:21;;;;;;;;;;;;;;;;;;5173769;27;19923;-50
2022/09/12 00:56:49;;;;;;;;;;;;;;;;;;5173514;27;20394;-50
2022/09/12 00:59:25;;;;;;;;;;;;;;;;;;5173617;27;19922;-49
2022/09/12 01:01:53;;;;;;;;;;;;;;;;;;5173710;27;20002;-48
2022/09/12 01:04:22;;;;;;;;;;;;;;;;;;5173578;27;19926;-51
2022/09/12 01:06:49;;;;;;;;;;;;;;;;;;5173540;27;20396;-53
2022/09/12 01:09:18;;;;;;;;;;;;;;;;;;5173082;27;20382;-51
2022/09/12 01:11:47;;;;;;;;;;;;;;;;;;5173319;27;19922;-52
2022/09/12 01:14:16;;;;;;;;;;;;;;;;;;5154585;27;19923;-47
2022/09/12 01:16:44;;;;;;;;;;;;;;;;;;5173395;27;19954;-51
2022/09/12 01:19:30;;;;;;;;;;;;;;;;;;5173351;27;19922;-49
2022/09/12 01:22:10;;;;;;;;;;;;;;;;;;5173404;27;20067;-51
2022/09/12 01:24:46;;;;;;;;;;;;;;;;;;5173162;27;20407;-52
2022/09/12 01:27:32;;;;;;;;;;;;;;;;;;5173356;27;20583;-48
2022/09/12 01:30:18;;;;;;;;;;;;;;;;;;5173236;27;20437;-48
2022/09/12 01:32:51;;;;;;;;;;;;;;;;;;5173060;27;19927;-52
2022/09/12 01:35:29;;;;;;;;;;;;;;;;;;5173119;27;19929;-49
2022/09/12 01:38:13;;;;;;;;;;;;;;;;;;5154363;27;19965;-49
2022/09/12 01:40:49;;;;;;;;;;;;;;;;;;5172991;27;19960;-46
2022/09/12 01:43:17;;;;;;;;;;;;;;;;;;5173177;27;19937;-52
2022/09/12 01:45:59;;;;;;;;;;;;;;;;;;5173107;27;19930;-49
2022/09/12 01:48:31;;;;;;;;;;;;;;;;;;5173107;27;19923;-48
2022/09/12 01:51:05;;;;;;;;;;;;;;;;;;5173065;27;20366;-52
2022/09/12 01:53:37;;;;;;;;;;;;;;;;;;5175390;27;19926;-48
2022/09/12 01:56:09;;;;;;;;;;;;;;;;;;5177309;27;19930;-48
2022/09/12 01:58:49;;;;;;;;;;;;;;;;;;5177196;27;19933;-51
2022/09/12 02:01:19;;;;;;;;;;;;;;;;;;5157905;27;19975;-49
2022/09/12 02:03:48;;;;;;;;;;;;;;;;;;5176758;27;20368;-51
2022/09/12 02:06:21;;;;;;;;;;;;;;;;;;5176962;27;20404;-53
2022/09/12 02:09:01;;;;;;;;;;;;;;;;;;5176618;27;20020;-47
2022/09/12 02:11:31;;;;;;;;;;;;;;;;;;5176815;27;19922;-51
2022/09/12 02:14:07;;;;;;;;;;;;;;;;;;5176478;27;20421;-49
2022/09/12 02:16:39;;;;;;;;;;;;;;;;;;5176861;27;19923;-51
2022/09/12 02:19:10;;;;;;;;;;;;;;;;;;5176484;27;19973;-52
2022/09/12 02:21:39;;;;;;;;;;;;;;;;;;5176551;27;20017;-51
2022/09/12 02:24:07;;;;;;;;;;;;;;;;;;5176472;27;19967;-48
2022/09/12 02:26:37;;;;;;;;;;;;;;;;;;5176520;27;19923;-46
2022/09/12 02:29:04;;;;;;;;;;;;;;;;;;5176467;27;19922;-48
2022/09/12 02:31:34;;;;;;;;;;;;;;;;;;5176481;27;20251;-45
2022/09/12 02:34:09;;;;;;;;;;;;;;;;;;5176362;27;19933;-48
2022/09/12 02:36:42;;;;;;;;;;;;;;;;;;5175886;27;20017;-48
2022/09/12 02:39:09;;;;;;;;;;;;;;;;;;5175947;27;19970;-51
2022/09/12 02:41:36;;;;;;;;;;;;;;;;;;5176133;27;20382;-48
2022/09/12 02:44:04;;;;;;;;;;;;;;;;;;5176231;27;19922;-45
2022/09/12 02:46:38;;;;;;;;;;;;;;;;;;5176202;27;19926;-51
2022/09/12 02:49:05;;;;;;;;;;;;;;;;;;5175885;27;19982;-49
2022/09/12 02:51:35;;;;;;;;;;;;;;;;;;5175799;27;20297;-47
2022/09/12 02:54:02;;;;;;;;;;;;;;;;;;5176244;27;19948;-52
2022/09/12 02:56:30;;;;;;;;;;;;;;;;;;5175936;27;19922;-49
2022/09/12 02:59:00;;;;;;;;;;;;;;;;;;5175976;27;19929;-53
2022/09/12 03:01:39;;;;;;;;;;;;;;;;;;5175562;27;19929;-51
2022/09/12 03:04:26;;;;;;;;;;;;;;;;;;5175345;27;19927;-48
2022/09/12 03:07:10;;;;;;;;;;;;;;;;;;5175787;27;19954;-44
2022/09/12 03:09:46;;;;;;;;;;;;;;;;;;5175212;27;19922;-47
2022/09/12 03:12:20;;;;;;;;;;;;;;;;;;5175495;27;19927;-46
2022/09/12 03:15:06;;;;;;;;;;;;;;;;;;5175432;27;19975;-50
2022/09/12 03:17:40;;;;;;;;;;;;;;;;;;5175768;27;19923;-51
2022/09/12 03:20:14;;;;;;;;;;;;;;;;;;5175370;27;19961;-51
2022/09/12 03:22:44;;;;;;;;;;;;;;;;;;5175369;27;20009;-47
2022/09/12 03:25:17;;;;;;;;;;;;;;;;;;5173137;27;19929;-52
2022/09/12 03:28:06;;;;;;;;;;;;;;;;;;5154260;27;19930;-49
2022/09/12 03:30:41;;;;;;;;;;;;;;;;;;5154575;27;19945;-44
2022/09/12 03:33:15;;;;;;;;;;;;;;;;;;5154009;27;19930;-52
2022/09/12 03:35:42;;;;;;;;;;;;;;;;;;5154085;27;19931;-49
2022/09/12 03:38:09;;;;;;;;;;;;;;;;;;5154179;27;19923;-50
2022/09/12 03:40:37;;;;;;;;;;;;;;;;;;5154059;27;19923;-51
2022/09/12 03:43:05;;;;;;;;;;;;;;;;;;5153943;27;19923;-46
2022/09/12 03:45:35;;;;;;;;;;;;;;;;;;5154073;27;19923;-50
2022/09/12 03:48:03;;;;;;;;;;;;;;;;;;5154185;27;19923;-49
2022/09/12 03:50:30;;;;;;;;;;;;;;;;;;5154059;27;19923;-45
2022/09/12 03:52:58;;;;;;;;;;;;;;;;;;5167643;27;20297;-50
2022/09/12 03:55:26;;;;;;;;;;;;;;;;;;5174768;27;19922;-49
2022/09/12 03:57:53;;;;;;;;;;;;;;;;;;5174478;27;19971;-46
2022/09/12 04:00:21;;;;;;;;;;;;;;;;;;5174592;27;20403;-46
2022/09/12 04:02:51;;;;;;;;;;;;;;;;;;5174521;27;19922;-46
2022/09/12 04:05:19;;;;;;;;;;;;;;;;;;5174573;27;20005;-47
2022/09/12 04:07:46;;;;;;;;;;;;;;;;;;5174252;27;19927;-45
2022/09/12 04:10:13;;;;;;;;;;;;;;;;;;5174469;27;19922;-49
2022/09/12 04:12:42;;;;;;;;;;;;;;;;;;5174224;27;19923;-44
2022/09/12 04:15:09;;;;;;;;;;;;;;;;;;5173654;27;19929;-51
2022/09/12 04:17:37;;;;;;;;;;;;;;;;;;5174367;27;19929;-47
2022/09/12 04:20:04;;;;;;;;;;;;;;;;;;5174307;27;19922;-44
2022/09/12 04:22:32;;;;;;;;;;;;;;;;;;5174235;27;19933;-49
2022/09/12 04:24:59;;;;;;;;;;;;;;;;;;5174119;27;19942;-49
2022/09/12 04:27:26;;;;;;;;;;;;;;;;;;5174238;27;19926;-45
2022/09/12 04:29:54;;;;;;;;;;;;;;;;;;5174044;27;19926;-50
2022/09/12 04:32:24;;;;;;;;;;;;;;;;;;5173869;27;19926;-48
2022/09/12 04:34:51;;;;;;;;;;;;;;;;;;5174160;27;19970;-48
2022/09/12 04:37:18;;;;;;;;;;;;;;;;;;5173752;27;19930;-48
2022/09/12 04:39:47;;;;;;;;;;;;;;;;;;5173753;27;19926;-49
2022/09/12 04:42:15;;;;;;;;;;;;;;;;;;5173954;27;19923;-50
2022/09/12 04:44:42;;;;;;;;;;;;;;;;;;5173919;27;20091;-49
2022/09/12 04:47:09;;;;;;;;;;;;;;;;;;5173869;27;19929;-44
2022/09/12 04:49:36;;;;;;;;;;;;;;;;;;5170110;27;19949;-44
2022/09/12 04:52:04;;;;;;;;;;;;;;;;;;5167742;27;19930;-45
2022/09/12 04:54:31;;;;;;;;;;;;;;;;;;5173560;27;20362;-47
2022/09/12 04:56:58;;;;;;;;;;;;;;;;;;5173751;27;19923;-46
2022/09/12 04:59:26;;;;;;;;;;;;;;;;;;5173821;27;19954;-47
2022/09/12 05:01:53;;;;;;;;;;;;;;;;;;5173683;27;19926;-48
2022/09/12 05:04:21;;;;;;;;;;;;;;;;;;5155146;27;19923;-48
2022/09/12 05:06:48;;;;;;;;;;;;;;;;;;5173121;27;19923;-46
2022/09/12 05:09:15;;;;;;;;;;;;;;;;;;5173181;27;19923;-45
2022/09/12 05:11:43;;;;;;;;;;;;;;;;;;5173189;27;19945;-45
2022/09/12 05:14:31;;;;;;;;;;;;;;;;;;5173418;27;19972;-49
2022/09/12 05:17:00;;;;;;;;;;;;;;;;;;5173199;27;20397;-47
2022/09/12 05:19:29;;;;;;;;;;;;;;;;;;5173168;27;19927;-49
2022/09/12 05:21:56;;;;;;;;;;;;;;;;;;5173223;27;20416;-46
2022/09/12 05:24:23;;;;;;;;;;;;;;;;;;5173250;27;19979;-48
2022/09/12 05:26:50;;;;;;;;;;;;;;;;;;5174368;27;20389;-46
2022/09/12 05:29:18;;;;;;;;;;;;;;;;;;5177669;27;19927;-47
2022/09/12 05:31:49;;;;;;;;;;;;;;;;;;5177098;27;19958;-45
2022/09/12 05:34:16;;;;;;;;;;;;;;;;;;5177535;27;20613;-43
2022/09/12 05:36:43;;;;;;;;;;;;;;;;;;5177474;27;19927;-49
2022/09/12 05:39:10;;;;;;;;;;;;;;;;;;5177468;27;19923;-52
2022/09/12 05:41:38;;;;;;;;;;;;;;;;;;5177343;27;19941;-47
2022/09/12 05:44:06;;;;;;;;;;;;;;;;;;5177178;27;19944;-49
2022/09/12 05:46:37;;;;;;;;;;;;;;;;;;5177430;27;20389;-44
2022/09/12 05:49:05;;;;;;;;;;;;;;;;;;5177196;27;19927;-44
2022/09/12 05:51:34;;;;;;;;;;;;;;;;;;5177422;27;20059;-46
2022/09/12 05:54:02;;;;;;;;;;;;;;;;;;5177225;27;20038;-48
2022/09/12 05:56:30;;;;;;;;;;;;;;;;;;5177253;27;19922;-48
2022/09/12 05:58:59;;;;;;;;;;;;;;;;;;5176494;27;19930;-49
2022/09/12 06:01:27;;;;;;;;;;;;;;;;;;5177074;27;20005;-45
2022/09/12 06:03:56;;;;;;;;;;;;;;;;;;5176995;27;19927;-48
2022/09/12 06:06:24;;;;;;;;;;;;;;;;;;5176785;27;19927;-48
2022/09/12 06:08:52;;;;;;;;;;;;;;;;;;5176716;27;19946;-47
2022/09/12 06:11:21;;;;;;;;;;;;;;;;;;5176722;27;19922;-45
2022/09/12 06:13:51;;;;;;;;;;;;;;;;;;5176534;27;20323;-46
2022/09/12 06:16:23;;;;;;;;;;;;;;;;;;5176718;27;20441;-44
2022/09/12 06:18:55;;;;;;;;;;;;;;;;;;5176744;27;19969;-45
2022/09/12 06:21:23;;;;;;;;;;;;;;;;;;5157731;27;19923;-51
2022/09/12 06:23:52;;;;;;;;;;;;;;;;;;5176329;27;19998;-44
2022/09/12 06:26:24;;;;;;;;;;;;;;;;;;5176479;27;19929;-49
2022/09/12 06:28:52;;;;;;;;;;;;;;;;;;5157837;27;19923;-45
2022/09/12 06:31:28;;;;;;;;;;;;;;;;;;5155642;27;19923;-47
2022/09/12 06:33:56;;;;;;;;;;;;;;;;;;5155196;27;19933;-49
2022/09/12 06:36:24;;;;;;;;;;;;;;;;;;5155210;27;19923;-49
2022/09/12 06:38:59;;;;;;;;;;;;;;;;;;5154759;27;19923;-50
2022/09/12 06:41:27;;;;;;;;;;;;;;;;;;5155225;27;20399;-50
2022/09/12 06:43:55;;;;;;;;;;;;;;;;;;5154580;27;19926;-53
2022/09/12 06:46:22;;;;;;;;;;;;;;;;;;5155220;27;19969;-46
2022/09/12 06:48:49;;;;;;;;;;;;;;;;;;5155074;27;19923;-48
2022/09/12 06:51:18;;;;;;;;;;;;;;;;;;5154713;27;20302;-45
2022/09/12 06:53:46;;;;;;;;;;;;;;;;;;5154710;27;19930;-48
2022/09/12 06:56:18;;;;;;;;;;;;;;;;;;5154405;27;20385;-48
2022/09/12 06:58:46;;;;;;;;;;;;;;;;;;5154954;27;19923;-50
2022/09/12 07:01:14;;;;;;;;;;;;;;;;;;5154608;27;19941;-48
2022/09/12 07:03:42;;;;;;;;;;;;;;;;;;5162401;27;19950;-50
2022/09/12 07:06:11;;;;;;;;;;;;;;;;;;5157422;27;19927;-44
2022/09/12 07:08:39;;;;;;;;;;;;;;;;;;5175307;27;19923;-44
2022/09/12 07:11:10;;;;;;;;;;;;;;;;;;5175624;27;20385;-45
2022/09/12 07:13:41;;;;;;;;;;;;;;;;;;5175270;27;19923;-47
2022/09/12 07:16:09;;;;;;;;;;;;;;;;;;5175369;27;19950;-46
2022/09/12 07:18:38;;;;;;;;;;;;;;;;;;5175075;27;19927;-44
2022/09/12 07:21:10;;;;;;;;;;;;;;;;;;5175362;27;19929;-45
2022/09/12 07:23:38;;;;;;;;;;;;;;;;;;5175234;27;20389;-48
2022/09/12 07:26:06;;;;;;;;;;;;;;;;;;5175306;27;20010;-49
2022/09/12 07:28:34;;;;;;;;;;;;;;;;;;5175389;27;19962;-44
2022/09/12 07:31:20;;;;;;;;;;;;;;;;;;5175268;27;19954;-43
2022/09/12 07:33:49;;;;;;;;;;;;;;;;;;5157124;27;19935;-47
2022/09/12 07:36:21;;;;;;;;;;;;;;;;;;5171834;27;19930;-44
2022/09/12 07:38:52;;;;;;;;;;;;;;;;;;5174751;27;20331;-45
2022/09/12 07:41:27;;;;;;;;;;;;;;;;;;5174471;27;19923;-44
2022/09/12 07:43:55;;;;;;;;;;;;;;;;;;5174804;27;19986;-45
2022/09/12 07:46:23;;;;;;;;;;;;;;;;;;5154101;27;19923;-46
2022/09/12 07:48:52;;;;;;;;;;;;;;;;;;5153534;27;19975;-49
2022/09/12 07:51:19;;;;;;;;;;;;;;;;;;5152203;27;20009;-47
2022/09/12 07:53:48;;;;;;;;;;;;;;;;;;5153592;27;19933;-52
2022/09/12 07:56:16;;;;;;;;;;;;;;;;;;5153570;27;19930;-46
2022/09/12 07:58:43;;;;;;;;;;;;;;;;;;5153070;27;19943;-46
2022/09/12 08:01:11;;;;;;;;;;;;;;;;;;5153384;27;19923;-48
2022/09/12 08:03:39;;;;;;;;;;;;;;;;;;5160740;27;19923;-49
2022/09/12 08:06:07;;;;;;;;;;;;;;;;;;5174528;27;20388;-48
2022/09/12 08:08:35;;;;;;;;;;;;;;;;;;5174590;27;20010;-50
2022/09/12 08:11:04;;;;;;;;;;;;;;;;;;5174618;27;19969;-45
2022/09/12 08:13:33;;;;;;;;;;;;;;;;;;5174527;27;20025;-45
2022/09/12 08:16:01;;;;;;;;;;;;;;;;;;5174302;27;19923;-47
2022/09/12 08:18:29;;;;;;;;;;;;;;;;;;5174182;27;19962;-47
2022/09/12 08:21:00;;;;;;;;;;;;;;;;;;5173994;27;19923;-45
2022/09/12 08:23:28;;;;;;;;;;;;;;;;;;5174047;27;19965;-47
2022/09/12 08:25:56;;;;;;;;;;;;;;;;;;5153053;27;20227;-49
2022/09/12 08:28:25;;;;;;;;;;;;;;;;;;5153260;27;19923;-48
2022/09/12 08:30:52;;;;;;;;;;;;;;;;;;5153120;27;19976;-53
2022/09/12 08:33:21;;;;;;;;;;;;;;;;;;5153202;27;20382;-50
2022/09/12 08:35:48;;;;;;;;;;;;;;;;;;5153114;27;19923;-52
2022/09/12 08:38:15;;;;;;;;;;;;;;;;;;5152800;27;20347;-47
2022/09/12 08:40:54;;;;;;;;;;;;;;;;;;5153153;27;19923;-48
2022/09/12 08:43:32;;;;;;;;;;;;;;;;;;5152834;27;19975;-51
2022/09/12 08:46:21;;;;;;;;;;;;;;;;;;5152799;27;19923;-51
2022/09/12 08:48:50;;;;;;;;;;;;;;;;;;5152907;27;19927;-52
2022/09/12 08:51:18;;;;;;;;;;;;;;;;;;5152858;27;19923;-48
2022/09/12 08:53:48;;;;;;;;;;;;;;;;;;5152890;27;20298;-50
2022/09/12 08:56:15;;;;;;;;;;;;;;;;;;5152754;27;20511;-48
2022/09/12 08:58:43;;;;;;;;;;;;;;;;;;5133860;27;20398;-49
2022/09/12 09:01:28;;;;;;;;;;;;;;;;;;5133432;27;20301;-51
2022/09/12 09:04:12;;;;;;;;;;;;;;;;;;5162325;27;19933;-57
2022/09/12 09:06:52;;;;;;;;;;;;;;;;;;5173389;27;19923;-53
2022/09/12 09:09:28;;;;;;;;;;;;;;;;;;5167134;27;19922;-50
2022/09/12 09:12:05;;;;;;;;;;;;;;;;;;5172310;27;19927;-45
2022/09/12 09:14:48;;;;;;;;;;;;;;;;;;5173269;27;19987;-47
2022/09/12 09:17:20;;;;;;;;;;;;;;;;;;5172956;27;19927;-49
2022/09/12 09:19:55;;;;;;;;;;;;;;;;;;5173073;27;20405;-52
2022/09/12 09:22:31;;;;;;;;;;;;;;;;;;5173040;27;20449;-48
2022/09/12 09:25:01;;;;;;;;;;;;;;;;;;5172281;27;19922;-48
2022/09/12 09:27:45;;;;;;;;;;;;;;;;;;5173017;27;19975;-53
2022/09/12 09:30:17;;;;;;;;;;;;;;;;;;5173078;27;19967;-47
2022/09/12 09:32:52;;;;;;;;;;;;;;;;;;5172809;27;20338;-53
2022/09/12 09:35:21;;;;;;;;;;;;;;;;;;5166994;27;19930;-47
2022/09/12 09:38:11;;;;;;;;;;;;;;;;;;5166551;27;20446;-51
2022/09/12 09:40:51;;;;;;;;;;;;;;;;;;5160355;27;20326;-51
2022/09/12 09:43:22;;;;;;;;;;;;;;;;;;5163510;27;20477;-50
2022/09/12 09:45:50;;;;;;;;;;;;;;;;;;5170586;27;20013;-47
2022/09/12 09:48:20;;;;;;;;;;;;;;;;;;5173285;27;19966;-50
2022/09/12 09:50:48;;;;;;;;;;;;;;;;;;5172924;27;20287;-47
2022/09/12 09:53:24;;;;;;;;;;;;;;;;;;5172921;27;19939;-53
2022/09/12 09:55:52;;;;;;;;;;;;;;;;;;5172664;27;19930;-51
2022/09/12 09:58:33;;;;;;;;;;;;;;;;;;5172963;27;20399;-49
2022/09/12 10:01:04;;;;;;;;;;;;;;;;;;5173021;27;19923;-54
2022/09/12 10:03:34;;;;;;;;;;;;;;;;;;5173017;27;19927;-54
2022/09/12 10:06:06;;;;;;;;;;;;;;;;;;5173115;27;19923;-51
2022/09/12 10:08:34;;;;;;;;;;;;;;;;;;5172916;27;19923;-50
2022/09/12 10:11:03;;;;;;;;;;;;;;;;;;5172965;27;20023;-54
2022/09/12 10:13:34;;;;;;;;;;;;;;;;;;5153688;27;20013;-47
2022/09/12 10:16:04;;;;;;;;;;;;;;;;;;5137712;27;19923;-51
2022/09/12 10:18:36;;;;;;;;;;;;;;;;;;5155799;27;19923;-49
2022/09/12 10:21:19;;;;;;;;;;;;;;;;;;5155795;27;19929;-53
2022/09/12 10:23:49;;;;;;;;;;;;;;;;;;5155610;27;20026;-48
2022/09/12 10:26:18;;;;;;;;;;;;;;;;;;5155609;27;19923;-54
2022/09/12 10:28:50;;;;;;;;;;;;;;;;;;5165008;27;20370;-46
2022/09/12 10:31:27;;;;;;;;;;;;;;;;;;5176399;27;20381;-51
2022/09/12 10:33:57;;;;;;;;;;;;;;;;;;5175828;27;19927;-53
2022/09/12 10:36:34;;;;;;;;;;;;;;;;;;5137176;27;19923;-52
2022/09/12 10:39:01;;;;;;;;;;;;;;;;;;5155647;27;19923;-53
2022/09/12 10:41:38;;;;;;;;;;;;;;;;;;5155107;27;20385;-53
2022/09/12 10:44:14;;;;;;;;;;;;;;;;;;5155220;27;19923;-47
2022/09/12 10:46:44;;;;;;;;;;;;;;;;;;5155211;27;19923;-50
2022/09/12 10:49:24;;;;;;;;;;;;;;;;;;5155293;27;19929;-48
2022/09/12 10:51:53;;;;;;;;;;;;;;;;;;5155052;27;19930;-47
2022/09/12 10:54:22;;;;;;;;;;;;;;;;;;5155137;27;20290;-50
2022/09/12 10:56:52;;;;;;;;;;;;;;;;;;5154742;27;19923;-47
2022/09/12 10:59:25;;;;;;;;;;;;;;;;;;5154990;27;20267;-44
2022/09/12 11:01:52;;;;;;;;;;;;;;;;;;5154767;27;19952;-49
2022/09/12 11:04:27;;;;;;;;;;;;;;;;;;5168140;27;19926;-50
2022/09/12 11:07:12;;;;;;;;;;;;;;;;;;5175868;27;19975;-50
2022/09/12 11:09:49;;;;;;;;;;;;;;;;;;5175336;27;20089;-50
2022/09/12 11:12:34;;;;;;;;;;;;;;;;;;5175659;27;19979;-51
2022/09/12 11:15:09;;;;;;;;;;;;;;;;;;5175866;27;20409;-49
2022/09/12 11:17:43;;;;;;;;;;;;;;;;;;5175366;27;19923;-49
2022/09/12 11:20:29;;;;;;;;;;;;;;;;;;5175593;27;20373;-50
2022/09/12 11:23:15;;;;;;;;;;;;;;;;;;5175243;27;20510;-54
2022/09/12 11:25:49;;;;;;;;;;;;;;;;;;5156097;27;19923;-48
2022/09/12 11:28:23;;;;;;;;;;;;;;;;;;5175306;27;19927;-48
2022/09/12 11:31:10;;;;;;;;;;;;;;;;;;5175315;27;20369;-50
2022/09/12 11:33:42;;;;;;;;;;;;;;;;;;5174584;27;19926;-46
2022/09/12 11:36:22;;;;;;;;;;;;;;;;;;5175224;27;20013;-50
2022/09/12 11:38:51;;;;;;;;;;;;;;;;;;5174979;27;20280;-46
2022/09/12 11:41:21;;;;;;;;;;;;;;;;;;5175060;27;20331;-48
2022/09/12 11:43:48;;;;;;;;;;;;;;;;;;5174637;27;20026;-47
2022/09/12 11:46:21;;;;;;;;;;;;;;;;;;5175136;27;19929;-54
2022/09/12 11:48:51;;;;;;;;;;;;;;;;;;5174820;27;19923;-51
2022/09/12 11:51:24;;;;;;;;;;;;;;;;;;5174733;27;19923;-54
2022/09/12 11:54:18;;;;;;;;;;;;;;;;;;5174663;27;20289;-50
2022/09/12 11:56:46;;;;;;;;;;;;;;;;;;5172030;27;19922;-49
2022/09/12 11:59:28;;;;;;;;;;;;;;;;;;5174449;27;19930;-54
2022/09/12 12:01:58;;;;;;;;;;;;;;;;;;5174257;27;19938;-48
2022/09/12 12:04:34;;;;;;;;;;;;;;;;;;5174604;27;20399;-49
2022/09/12 12:07:06;;;;;;;;;;;;;;;;;;5174692;27;19930;-49
2022/09/12 12:09:35;;;;;;;;;;;;;;;;;;5174509;27;20297;-49
2022/09/12 12:12:06;;;;;;;;;;;;;;;;;;5174819;27;20259;-48
2022/09/12 12:14:39;;;;;;;;;;;;;;;;;;5174506;27;19969;-51
2022/09/12 12:17:16;;;;;;;;;;;;;;;;;;5172395;27;20405;-49
2022/09/12 12:19:45;;;;;;;;;;;;;;;;;;5174038;27;19923;-45
2022/09/12 12:22:17;;;;;;;;;;;;;;;;;;5174000;27;20285;-54
2022/09/12 12:25:02;;;;;;;;;;;;;;;;;;5155881;27;19929;-52
2022/09/12 12:27:50;;;;;;;;;;;;;;;;;;5155660;27;19923;-50
2022/09/12 12:30:30;;;;;;;;;;;;;;;;;;5174028;27;19922;-50
2022/09/12 12:33:01;;;;;;;;;;;;;;;;;;5174096;27;19975;-54
2022/09/12 12:35:34;;;;;;;;;;;;;;;;;;5173759;27;20378;-52
2022/09/12 12:38:03;;;;;;;;;;;;;;;;;;5173287;27;20551;-52
2022/09/12 12:40:32;;;;;;;;;;;;;;;;;;5174095;27;19978;-53
2022/09/12 12:43:02;;;;;;;;;;;;;;;;;;5173704;27;19923;-47
2022/09/12 12:45:30;;;;;;;;;;;;;;;;;;5173764;27;19922;-54
2022/09/12 12:47:59;;;;;;;;;;;;;;;;;;5173829;27;19923;-53
2022/09/12 12:50:30;;;;;;;;;;;;;;;;;;5173726;27;19975;-53
2022/09/12 12:53:16;;;;;;;;;;;;;;;;;;5173679;27;19923;-46
2022/09/12 12:55:43;;;;;;;;;;;;;;;;;;5173502;27;20340;-49
2022/09/12 12:58:31;;;;;;;;;;;;;;;;;;5173677;27;20001;-47
2022/09/12 13:01:16;;;;;;;;;;;;;;;;;;5173647;27;19983;-52
2022/09/12 13:03:53;;;;;;;;;;;;;;;;;;5173390;27;20010;-54
2022/09/12 13:06:25;;;;;;;;;;;;;;;;;;5173555;27;19923;-51
2022/09/12 13:08:55;;;;;;;;;;;;;;;;;;5173453;27;19948;-48
2022/09/12 13:11:29;;;;;;;;;;;;;;;;;;5172747;27;19923;-48
2022/09/12 13:14:00;;;;;;;;;;;;;;;;;;5173245;27;20185;-49
2022/09/12 13:16:29;;;;;;;;;;;;;;;;;;5172929;27;20525;-47
2022/09/12 13:19:00;;;;;;;;;;;;;;;;;;5173366;27;20603;-46
2022/09/12 13:21:27;;;;;;;;;;;;;;;;;;5173447;27;19948;-53
2022/09/12 13:24:00;;;;;;;;;;;;;;;;;;5173364;27;19934;-52
2022/09/12 13:26:27;;;;;;;;;;;;;;;;;;5173284;27;20005;-44
2022/09/12 13:29:12;;;;;;;;;;;;;;;;;;5173023;27;19930;-54
2022/09/12 13:31:42;;;;;;;;;;;;;;;;;;5173118;27;19975;-51
2022/09/12 13:34:32;;;;;;;;;;;;;;;;;;5173031;27;19927;-49
2022/09/12 13:37:17;;;;;;;;;;;;;;;;;;5173241;27;20146;-55
2022/09/12 13:39:48;;;;;;;;;;;;;;;;;;5154757;27;19930;-47
2022/09/12 13:42:34;;;;;;;;;;;;;;;;;;5172969;27;19978;-47
2022/09/12 13:45:11;;;;;;;;;;;;;;;;;;5172972;27;20044;-44
2022/09/12 13:47:43;;;;;;;;;;;;;;;;;;5173736;27;19923;-45
2022/09/12 13:50:33;;;;;;;;;;;;;;;;;;5158934;27;19922;-43
2022/09/12 13:53:02;;;;;;;;;;;;;;;;;;5159655;27;19923;-44
2022/09/12 13:55:53;;;;;;;;;;;;;;;;;;5177136;27;20337;-46
2022/09/12 13:58:23;;;;;;;;;;;;;;;;;;5164040;27;19965;-46
2022/09/12 14:00:59;;;;;;;;;;;;;;;;;;5176929;27;19929;-44
2022/09/12 14:06:15;;;;;;;;;;;;;;;;;;5177147;27;19962;-47
2022/09/12 14:08:43;;;;;;;;;;;;;;;;;;5176618;27;20389;-45
2022/09/12 14:11:10;;;;;;;;;;;;;;;;;;5176581;27;20281;-44
2022/09/12 14:13:38;;;;;;;;;;;;;;;;;;5176721;27;20346;-46
2022/09/12 14:16:08;;;;;;;;;;;;;;;;;;5176810;27;20013;-52
2022/09/12 14:18:37;;;;;;;;;;;;;;;;;;5176883;27;20002;-53
2022/09/12 14:21:22;;;;;;;;;;;;;;;;;;5176529;27;19923;-46
2022/09/12 14:23:53;;;;;;;;;;;;;;;;;;5176248;27;19927;-51
2022/09/12 14:26:22;;;;;;;;;;;;;;;;;;5176447;27;19923;-44
2022/09/12 14:28:49;;;;;;;;;;;;;;;;;;5175474;27;20572;-47
2022/09/12 14:31:22;;;;;;;;;;;;;;;;;;5176333;27;20021;-44
2022/09/12 14:33:51;;;;;;;;;;;;;;;;;;5176374;27;19927;-46
2022/09/12 14:36:18;;;;;;;;;;;;;;;;;;5176504;27;20295;-46
2022/09/12 14:38:47;;;;;;;;;;;;;;;;;;5176176;27;20412;-46
2022/09/12 14:41:20;;;;;;;;;;;;;;;;;;5175989;27;20386;-45
2022/09/12 14:43:51;;;;;;;;;;;;;;;;;;5175916;27;19926;-43
2022/09/12 14:46:24;;;;;;;;;;;;;;;;;;5176068;27;19923;-50
2022/09/12 14:48:53;;;;;;;;;;;;;;;;;;5173896;27;19991;-40
2022/09/12 14:51:24;;;;;;;;;;;;;;;;;;5175198;27;19929;-47
2022/09/12 14:53:51;;;;;;;;;;;;;;;;;;5168147;27;19927;-45
2022/09/12 14:56:35;;;;;;;;;;;;;;;;;;5154691;27;20309;-50
2022/09/12 14:59:21;;;;;;;;;;;;;;;;;;5154827;27;19930;-51
2022/09/12 15:01:48;;;;;;;;;;;;;;;;;;5136405;27;19934;-44
2022/09/12 15:04:36;;;;;;;;;;;;;;;;;;5167289;27;19923;-50
2022/09/12 15:07:21;;;;;;;;;;;;;;;;;;5175649;27;19922;-47
2022/09/12 15:09:49;;;;;;;;;;;;;;;;;;5134094;27;19923;-51
2022/09/12 15:12:16;;;;;;;;;;;;;;;;;;5134274;27;19923;-44
2022/09/12 15:14:44;;;;;;;;;;;;;;;;;;5133342;27;20386;-47
2022/09/12 15:17:12;;;;;;;;;;;;;;;;;;5133661;27;19972;-51
2022/09/12 15:19:39;;;;;;;;;;;;;;;;;;5133517;27;20369;-48
2022/09/12 15:22:09;;;;;;;;;;;;;;;;;;5133311;27;19929;-47
2022/09/12 15:24:38;;;;;;;;;;;;;;;;;;5133501;27;20386;-43
2022/09/12 15:27:12;;;;;;;;;;;;;;;;;;5133971;27;19924;-44
2022/09/12 15:29:39;;;;;;;;;;;;;;;;;;5133482;27;19970;-45
2022/09/12 15:32:13;;;;;;;;;;;;;;;;;;5133806;27;19928;-44
2022/09/12 15:34:43;;;;;;;;;;;;;;;;;;5133407;27;20386;-45
2022/09/12 15:37:13;;;;;;;;;;;;;;;;;;5131623;27;19991;-46
2022/09/12 15:39:40;;;;;;;;;;;;;;;;;;5118184;27;19923;-49
2022/09/12 15:42:08;;;;;;;;;;;;;;;;;;5112589;28;19927;-47
2022/09/12 15:44:35;;;;;;;;;;;;;;;;;;5112773;28;19967;-47
2022/09/12 15:47:03;;;;;;;;;;;;;;;;;;5113036;28;19924;-49
2022/09/12 15:49:31;;;;;;;;;;;;;;;;;;5112893;28;20458;-44
2022/09/12 15:51:58;;;;;;;;;;;;;;;;;;5112818;28;19927;-44
2022/09/12 15:54:25;;;;;;;;;;;;;;;;;;5115784;27;19929;-44
2022/09/12 15:56:52;;;;;;;;;;;;;;;;;;5131661;27;19927;-46
2022/09/12 15:59:21;;;;;;;;;;;;;;;;;;5132808;27;19931;-46
2022/09/12 16:01:48;;;;;;;;;;;;;;;;;;5132864;27;20279;-46
2022/09/12 16:04:22;;;;;;;;;;;;;;;;;;5133020;27;19930;-45
2022/09/12 16:06:50;;;;;;;;;;;;;;;;;;5132355;27;20423;-44
2022/09/12 16:09:18;;;;;;;;;;;;;;;;;;5167433;27;20324;-43
2022/09/12 16:11:46;;;;;;;;;;;;;;;;;;5173445;27;20429;-46
2022/09/12 16:14:14;;;;;;;;;;;;;;;;;;5155631;27;20345;-51
2022/09/12 16:16:42;;;;;;;;;;;;;;;;;;5174324;27;19975;-47
2022/09/12 16:19:12;;;;;;;;;;;;;;;;;;5173902;27;19930;-48
2022/09/12 16:21:39;;;;;;;;;;;;;;;;;;5173992;27;19926;-46
2022/09/12 16:24:06;;;;;;;;;;;;;;;;;;5173720;27;19945;-44
2022/09/12 16:26:34;;;;;;;;;;;;;;;;;;5173991;27;19923;-47
2022/09/12 16:29:01;;;;;;;;;;;;;;;;;;5174024;27;19930;-50
2022/09/12 16:31:29;;;;;;;;;;;;;;;;;;5174062;27;19975;-49
2022/09/12 16:33:56;;;;;;;;;;;;;;;;;;5174056;27;19949;-47
2022/09/12 16:36:24;;;;;;;;;;;;;;;;;;5173881;27;19922;-48
2022/09/12 16:38:52;;;;;;;;;;;;;;;;;;5153605;27;19929;-44
2022/09/12 16:41:21;;;;;;;;;;;;;;;;;;5171777;27;20393;-48
2022/09/12 16:43:50;;;;;;;;;;;;;;;;;;5171447;27;20000;-48
2022/09/12 16:46:19;;;;;;;;;;;;;;;;;;5171881;27;19926;-44
2022/09/12 16:48:51;;;;;;;;;;;;;;;;;;5171902;27;20397;-44
2022/09/12 16:51:23;;;;;;;;;;;;;;;;;;5172223;27;19923;-45
2022/09/12 16:53:51;;;;;;;;;;;;;;;;;;5171702;27;20477;-52
2022/09/12 16:56:18;;;;;;;;;;;;;;;;;;5173968;27;19923;-54
2022/09/12 16:58:46;;;;;;;;;;;;;;;;;;5173757;27;19927;-51
2022/09/12 17:01:15;;;;;;;;;;;;;;;;;;5173306;27;19922;-49
2022/09/12 17:03:42;;;;;;;;;;;;;;;;;;5173383;27;19982;-53
2022/09/12 17:06:12;;;;;;;;;;;;;;;;;;5173633;27;19922;-53
2022/09/12 17:08:40;;;;;;;;;;;;;;;;;;5173333;27;19929;-53
2022/09/12 17:11:08;;;;;;;;;;;;;;;;;;5172679;27;20460;-52
2022/09/12 17:13:36;;;;;;;;;;;;;;;;;;5154864;27;19923;-51
2022/09/12 17:16:23;;;;;;;;;;;;;;;;;;5173035;27;19975;-50
2022/09/12 17:18:51;;;;;;;;;;;;;;;;;;5173170;27;19929;-53